Terminal Aerodrome Forecast
Issued by NWS La Crosse, WI

Home | Current Version | Previous Version | Text Only | Print | Product List | Glossary On
Versions: 1 2 3 4 5 6 7 8 9 10 11 12 13 14 15 16 17 18 19 20
000
FTUS43 KARX 311130
TAFRST
TAF
KRST 311130Z 3112/0112 17013KT P6SM VCSH SCT040 BKN180
     FM311500 17011G20KT P6SM SCT050 BKN100
     FM312000 18017G23KT 6SM SHRA BR VCTS BKN050CB
     FM010300 20006KT P6SM VCSH OVC080
     FM010600 23008KT P6SM SCT120=

USA.gov is the U.S. government's official web portal to all federal, state and local government web resources and services.